Time;durP1;ratioP1;P1;durP2;ratioP2;P2;SDS_P1;SDS_P2;PMS_P1;PMS_P2;Temp;Humidity;BMP_temperature;BMP_pressure;BME280_temperature;BME280_humidity;BME280_pressure;Samples;Min_cycle;Max_cycle;Signal;HPM_P1;HPM_P2
2021/12/01 00:00:53;;;;;;;41.00;20.23;;;;;;;;;;5035234;28;20426;-76
2021/12/01 00:03:19;;;;;;;36.00;16.00;;;;;;;;;;5034872;28;20909;-76
2021/12/01 00:05:47;;;;;;;18.00;6.10;;;;;;;;;;5033933;28;20920;-76
2021/12/01 00:08:14;;;;;;;30.53;10.60;;;;;;;;;;5034002;28;20450;-75
2021/12/01 00:10:40;;;;;;;113.27;34.67;;;;;;;;;;5034187;28;20422;-76
2021/12/01 00:13:08;;;;;;;179.60;56.83;;;;;;;;;;5034905;28;20470;-75
2021/12/01 00:15:35;;;;;;;18.40;6.90;;;;;;;;;;5033734;28;20850;-76
2021/12/01 00:18:01;;;;;;;12.27;4.87;;;;;;;;;;5034918;28;20418;-76
2021/12/01 00:20:28;;;;;;;9.17;3.73;;;;;;;;;;5034499;28;20430;-75
2021/12/01 00:22:55;;;;;;;91.53;30.03;;;;;;;;;;5034877;28;20480;-76
2021/12/01 00:25:22;;;;;;;77.53;29.43;;;;;;;;;;5034482;28;20892;-76
2021/12/01 00:27:50;;;;;;;31.43;13.10;;;;;;;;;;5034622;28;20455;-75
2021/12/01 00:30:17;;;;;;;37.87;16.00;;;;;;;;;;5033171;28;20429;-76
2021/12/01 00:32:43;;;;;;;15.83;7.53;;;;;;;;;;5034590;28;20487;-76
2021/12/01 00:35:10;;;;;;;23.83;12.43;;;;;;;;;;5034567;28;20432;-76
2021/12/01 00:37:37;;;;;;;12.03;6.87;;;;;;;;;;5034525;28;20415;-76
2021/12/01 00:40:04;;;;;;;5.27;2.63;;;;;;;;;;5032936;28;20438;-75
2021/12/01 00:42:31;;;;;;;4.13;2.40;;;;;;;;;;5034340;28;20796;-76
2021/12/01 00:45:07;;;;;;;8.40;2.93;;;;;;;;;;5016829;28;20466;-76
2021/12/01 00:47:44;;;;;;;5.33;1.97;;;;;;;;;;5033128;28;20418;-76
2021/12/01 00:50:16;;;;;;;5.93;2.00;;;;;;;;;;5034559;28;20401;-76
2021/12/01 00:52:42;;;;;;;9.10;2.83;;;;;;;;;;5033208;28;20871;-76
2021/12/01 00:55:09;;;;;;;8.97;4.20;;;;;;;;;;5034079;28;20481;-74
2021/12/01 00:57:36;;;;;;;3.93;1.90;;;;;;;;;;5033952;28;20920;-73
2021/12/01 01:00:04;;;;;;;6.57;2.67;;;;;;;;;;5034297;28;20504;-73
2021/12/01 01:37:45;;;;;;;4.70;1.97;;;;;;;;;;5033434;28;20905;-73
2021/12/01 01:40:12;;;;;;;6.30;2.23;;;;;;;;;;5033583;28;20442;-74
2021/12/01 01:42:38;;;;;;;7.13;2.70;;;;;;;;;;5032889;28;20443;-73
2021/12/01 01:45:05;;;;;;;4.77;2.10;;;;;;;;;;5015898;28;20422;-73
2021/12/01 01:47:32;;;;;;;5.00;2.10;;;;;;;;;;5033292;28;20512;-73
2021/12/01 01:52:29;;;;;;;2.43;1.43;;;;;;;;;;5032664;28;20769;-74
2021/12/01 01:54:55;;;;;;;2.83;1.90;;;;;;;;;;5033867;28;20402;-73
2021/12/01 01:57:22;;;;;;;4.10;2.00;;;;;;;;;;5033328;28;20428;-73
2021/12/01 01:59:48;;;;;;;8.13;2.27;;;;;;;;;;5033776;28;20426;-73
2021/12/01 02:02:15;;;;;;;4.77;2.30;;;;;;;;;;5033505;28;20904;-74
2021/12/01 02:04:43;;;;;;;6.53;2.30;;;;;;;;;;5033431;28;20770;-73
2021/12/01 02:07:09;;;;;;;6.70;2.33;;;;;;;;;;5033131;28;20418;-73
2021/12/01 02:09:36;;;;;;;6.30;2.70;;;;;;;;;;5032440;28;20469;-74
2021/12/01 02:12:03;;;;;;;9.80;3.13;;;;;;;;;;5033139;28;20805;-73
2021/12/01 02:14:29;;;;;;;9.50;2.80;;;;;;;;;;5033046;28;20426;-73
2021/12/01 02:16:56;;;;;;;6.80;2.70;;;;;;;;;;5032754;28;20476;-73
2021/12/01 02:19:23;;;;;;;6.53;2.70;;;;;;;;;;5015796;28;20430;-73
2021/12/01 02:21:49;;;;;;;9.40;3.53;;;;;;;;;;5033626;28;20780;-73
2021/12/01 02:24:18;;;;;;;7.03;3.23;;;;;;;;;;5033152;28;20429;-73
2021/12/01 02:26:46;;;;;;;7.00;2.70;;;;;;;;;;5032486;28;20422;-73
2021/12/01 02:29:14;;;;;;;5.60;2.57;;;;;;;;;;5032943;28;20928;-73
2021/12/01 02:31:40;;;;;;;6.53;3.07;;;;;;;;;;5033531;28;20430;-73
2021/12/01 02:34:08;;;;;;;7.30;2.70;;;;;;;;;;5034821;28;20422;-73
2021/12/01 02:36:38;;;;;;;6.73;2.20;;;;;;;;;;5036568;28;20503;-73
2021/12/01 02:39:08;;;;;;;6.63;2.83;;;;;;;;;;5035392;28;20453;-73
2021/12/01 02:45:27;;;;;;;6.27;2.47;;;;;;;;;;5036483;28;20373;-73
2021/12/01 02:47:54;;;;;;;5.80;2.87;;;;;;;;;;5035028;28;20464;-73
2021/12/01 02:50:21;;;;;;;6.20;3.00;;;;;;;;;;5035211;28;20527;-74
2021/12/01 02:52:47;;;;;;;6.97;2.83;;;;;;;;;;5036216;28;20433;-73
2021/12/01 02:55:17;;;;;;;5.47;2.73;;;;;;;;;;5036506;28;20410;-73
2021/12/01 02:57:51;;;;;;;5.90;2.77;;;;;;;;;;5035864;28;20418;-74
2021/12/01 03:00:18;;;;;;;6.50;2.73;;;;;;;;;;5036146;28;20465;-74
2021/12/01 03:02:44;;;;;;;7.23;2.80;;;;;;;;;;5018644;28;20434;-74
2021/12/01 03:05:11;;;;;;;7.00;2.90;;;;;;;;;;5036135;28;20426;-74
2021/12/01 03:07:38;;;;;;;6.63;2.70;;;;;;;;;;5034850;28;20418;-74
2021/12/01 03:10:05;;;;;;;5.23;2.63;;;;;;;;;;5018489;28;20480;-74
2021/12/01 03:12:32;;;;;;;6.57;2.80;;;;;;;;;;5035022;28;20441;-74
2021/12/01 03:14:59;;;;;;;6.10;2.93;;;;;;;;;;5035795;28;20597;-74
2021/12/01 03:17:26;;;;;;;6.30;3.03;;;;;;;;;;5036950;28;20426;-73
2021/12/01 03:19:52;;;;;;;6.53;2.70;;;;;;;;;;5035923;28;20529;-74
2021/12/01 03:22:21;;;;;;;7.10;2.93;;;;;;;;;;5036306;28;20505;-74
2021/12/01 03:24:47;;;;;;;5.60;2.60;;;;;;;;;;5034599;28;20430;-74
2021/12/01 03:27:14;;;;;;;6.20;2.50;;;;;;;;;;5036831;28;20482;-73
2021/12/01 03:29:41;;;;;;;6.63;2.83;;;;;;;;;;5034319;28;20466;-73
2021/12/01 03:32:07;;;;;;;5.73;3.07;;;;;;;;;;5035698;28;20488;-72
2021/12/01 03:34:34;;;;;;;4.23;2.70;;;;;;;;;;5034458;28;20437;-73
2021/12/01 03:37:01;;;;;;;5.10;2.90;;;;;;;;;;5036096;28;20530;-73
2021/12/01 03:39:27;;;;;;;4.17;2.33;;;;;;;;;;5035133;28;20446;-73
2021/12/01 03:41:54;;;;;;;4.80;2.43;;;;;;;;;;5035265;28;20426;-73
2021/12/01 03:44:21;;;;;;;7.10;2.67;;;;;;;;;;5035226;28;20444;-72
2021/12/01 03:46:47;;;;;;;7.53;3.07;;;;;;;;;;5035824;28;20494;-71
2021/12/01 03:49:14;;;;;;;8.83;3.47;;;;;;;;;;5035190;28;20467;-78
2021/12/01 03:51:40;;;;;;;7.87;3.53;;;;;;;;;;5034372;28;20959;-77
2021/12/01 03:54:07;;;;;;;9.53;3.10;;;;;;;;;;5034427;28;20444;-74
2021/12/01 03:56:34;;;;;;;11.00;3.77;;;;;;;;;;5016808;28;20484;-74
2021/12/01 03:59:01;;;;;;;6.90;3.10;;;;;;;;;;5033123;28;20428;-75
2021/12/01 04:01:28;;;;;;;9.17;3.63;;;;;;;;;;5034879;28;20938;-72
2021/12/01 04:03:54;;;;;;;9.23;4.70;;;;;;;;;;5034766;28;20872;-76
2021/12/01 04:06:21;;;;;;;10.67;4.27;;;;;;;;;;5033198;28;20811;-75
2021/12/01 04:08:48;;;;;;;11.40;4.60;;;;;;;;;;5034296;28;20497;-75
2021/12/01 04:11:15;;;;;;;8.70;3.90;;;;;;;;;;5034712;28;20523;-75
2021/12/01 04:13:41;;;;;;;9.17;4.33;;;;;;;;;;5032927;28;20927;-75
2021/12/01 04:16:08;;;;;;;6.57;3.43;;;;;;;;;;5034393;28;20425;-77
2021/12/01 04:18:35;;;;;;;9.40;4.37;;;;;;;;;;5016704;28;20435;-74
2021/12/01 04:21:02;;;;;;;9.33;3.87;;;;;;;;;;5033998;28;20908;-73
2021/12/01 04:23:30;;;;;;;7.67;3.77;;;;;;;;;;5032757;28;20508;-75
2021/12/01 04:25:57;;;;;;;9.03;3.93;;;;;;;;;;5034290;28;20444;-75
2021/12/01 04:28:24;;;;;;;10.77;4.17;;;;;;;;;;5033921;28;20406;-75
2021/12/01 04:30:50;;;;;;;10.87;4.70;;;;;;;;;;5033839;28;20470;-75
2021/12/01 04:33:17;;;;;;;10.93;4.20;;;;;;;;;;5041613;28;20437;-74
2021/12/01 04:35:46;;;;;;;12.70;4.23;;;;;;;;;;5053708;28;20567;-73
2021/12/01 04:38:13;;;;;;;10.80;4.50;;;;;;;;;;5053517;28;20432;-77
2021/12/01 04:40:40;;;;;;;9.60;4.20;;;;;;;;;;5053635;28;20429;-78
2021/12/01 04:43:06;;;;;;;9.13;4.07;;;;;;;;;;5052266;28;20462;-74
2021/12/01 04:45:36;;;;;;;9.07;4.53;;;;;;;;;;5053345;28;20463;-78
2021/12/01 04:48:03;;;;;;;13.10;5.43;;;;;;;;;;5053595;28;20528;-79
2021/12/01 04:50:30;;;;;;;13.20;6.03;;;;;;;;;;5053437;28;20501;-78
2021/12/01 04:52:58;;;;;;;23.20;11.63;;;;;;;;;;5052826;28;20512;-79
2021/12/01 04:55:25;;;;;;;18.67;8.33;;;;;;;;;;5053290;28;20495;-77
2021/12/01 04:57:52;;;;;;;12.90;5.93;;;;;;;;;;5035508;28;20429;-78
2021/12/01 05:00:20;;;;;;;15.63;7.13;;;;;;;;;;5052312;28;20435;-79
2021/12/01 05:02:47;;;;;;;15.60;6.77;;;;;;;;;;5035809;28;20429;-77
2021/12/01 05:05:14;;;;;;;15.20;5.83;;;;;;;;;;5054317;28;20447;-77
2021/12/01 05:07:41;;;;;;;13.43;5.70;;;;;;;;;;5054459;28;20439;-77
2021/12/01 05:10:07;;;;;;;13.17;5.93;;;;;;;;;;5053656;28;20456;-77
2021/12/01 05:12:34;;;;;;;17.63;5.37;;;;;;;;;;5052410;28;20547;-77
2021/12/01 05:15:01;;;;;;;12.47;5.87;;;;;;;;;;5054534;28;20483;-77
2021/12/01 05:17:27;;;;;;;21.80;8.57;;;;;;;;;;5053560;28;20460;-77
2021/12/01 05:19:54;;;;;;;23.40;8.73;;;;;;;;;;5053607;28;20754;-77
2021/12/01 05:22:21;;;;;;;15.03;7.20;;;;;;;;;;5052241;28;20421;-77
2021/12/01 05:24:47;;;;;;;16.60;7.23;;;;;;;;;;5054094;28;20432;-77
2021/12/01 05:27:14;;;;;;;18.77;6.90;;;;;;;;;;5053936;28;20907;-77
2021/12/01 05:29:41;;;;;;;33.70;13.10;;;;;;;;;;5052385;28;20511;-77
2021/12/01 05:32:07;;;;;;;47.60;16.70;;;;;;;;;;5035872;28;20769;-76
2021/12/01 05:34:34;;;;;;;30.20;11.20;;;;;;;;;;5052882;28;20415;-74
2021/12/01 05:37:01;;;;;;;24.43;9.87;;;;;;;;;;5053034;28;20555;-75
2021/12/01 05:39:28;;;;;;;25.67;9.53;;;;;;;;;;5051764;28;20442;-75
2021/12/01 05:41:55;;;;;;;22.93;10.10;;;;;;;;;;5052191;28;20417;-74
2021/12/01 05:44:22;;;;;;;19.97;8.10;;;;;;;;;;5052753;28;20417;-74
2021/12/01 05:46:49;;;;;;;20.90;7.00;;;;;;;;;;5052907;28;20459;-74
2021/12/01 05:49:15;;;;;;;19.93;7.30;;;;;;;;;;5052983;28;20452;-74
2021/12/01 05:51:43;;;;;;;16.27;6.57;;;;;;;;;;5051727;28;20766;-74
2021/12/01 05:54:09;;;;;;;15.83;5.67;;;;;;;;;;5052835;28;20492;-72
2021/12/01 05:56:36;;;;;;;17.27;6.60;;;;;;;;;;5051523;28;20481;-72
2021/12/01 05:59:03;;;;;;;17.80;7.77;;;;;;;;;;5052632;28;20490;-71
2021/12/01 06:01:29;;;;;;;17.13;7.60;;;;;;;;;;5051698;28;20451;-74
2021/12/01 06:03:56;;;;;;;22.23;8.70;;;;;;;;;;5035239;28;20428;-73
2021/12/01 06:06:23;;;;;;;22.97;8.70;;;;;;;;;;5052256;28;20516;-75
2021/12/01 06:08:49;;;;;;;19.20;7.80;;;;;;;;;;5054675;28;20487;-74
2021/12/01 06:11:16;;;;;;;24.10;9.60;;;;;;;;;;5055778;28;20819;-74
2021/12/01 06:13:43;;;;;;;24.60;10.63;;;;;;;;;;5056330;28;20415;-74
2021/12/01 06:16:10;;;;;;;21.53;9.00;;;;;;;;;;5055759;28;20457;-74
2021/12/01 06:18:36;;;;;;;21.57;8.20;;;;;;;;;;5057978;28;20424;-74
2021/12/01 06:21:03;;;;;;;22.53;9.03;;;;;;;;;;5057104;28;20425;-75
2021/12/01 06:23:29;;;;;;;24.37;9.33;;;;;;;;;;5056790;28;20911;-74
2021/12/01 06:25:56;;;;;;;21.83;9.33;;;;;;;;;;5057575;28;20436;-74
2021/12/01 06:28:23;;;;;;;27.70;9.53;;;;;;;;;;5056909;28;20429;-74
2021/12/01 06:30:49;;;;;;;23.17;9.07;;;;;;;;;;5055410;28;20803;-74
2021/12/01 06:33:20;;;;;;;22.97;9.23;;;;;;;;;;5056654;28;20476;-68
2021/12/01 06:35:49;;;;;;;19.00;8.63;;;;;;;;;;5053641;28;20473;-70
2021/12/01 06:38:16;;;;;;;17.97;8.57;;;;;;;;;;5037227;28;20942;-68
2021/12/01 06:40:46;;;;;;;20.90;7.90;;;;;;;;;;5052439;28;20895;-67
2021/12/01 06:43:12;;;;;;;17.20;7.50;;;;;;;;;;5035617;28;20509;-68
2021/12/01 06:45:40;;;;;;;18.40;7.73;;;;;;;;;;5053773;28;20530;-68
2021/12/01 06:48:07;;;;;;;18.73;7.90;;;;;;;;;;5037270;28;20741;-67
2021/12/01 06:50:33;;;;;;;16.23;7.50;;;;;;;;;;5055039;28;20932;-68
2021/12/01 06:53:00;;;;;;;18.47;7.60;;;;;;;;;;5054527;28;20747;-67
2021/12/01 06:55:27;;;;;;;25.40;10.87;;;;;;;;;;5053736;28;20432;-67
2021/12/01 06:57:58;;;;;;;43.40;13.93;;;;;;;;;;5053532;28;20533;-67
2021/12/01 07:00:25;;;;;;;30.93;13.03;;;;;;;;;;5053686;28;20417;-68
2021/12/01 07:02:53;;;;;;;28.33;11.73;;;;;;;;;;5032707;28;20460;-67
2021/12/01 07:05:54;;;;;;;33.30;12.70;;;;;;;;;;5045663;28;20424;-68
2021/12/01 07:20:30;;;;;;;29.07;12.17;;;;;;;;;;5054974;28;20435;-68
2021/12/01 07:22:57;;;;;;;25.17;11.23;;;;;;;;;;5054560;28;20452;-67
2021/12/01 07:25:49;;;;;;;25.97;11.63;;;;;;;;;;5053168;28;20446;-68
2021/12/01 07:28:16;;;;;;;27.17;11.57;;;;;;;;;;5041203;28;20436;-66
2021/12/01 07:30:43;;;;;;;29.83;12.43;;;;;;;;;;5053018;28;20860;-67
2021/12/01 07:33:10;;;;;;;30.03;12.93;;;;;;;;;;5053628;28;20433;-67
2021/12/01 07:35:36;;;;;;;35.93;15.57;;;;;;;;;;5049657;28;20465;-67
2021/12/01 07:38:03;;;;;;;30.13;13.47;;;;;;;;;;5051426;28;20430;-67
2021/12/01 07:41:12;;;;;;;31.80;12.83;;;;;;;;;;5051781;28;20544;-67
2021/12/01 07:43:39;;;;;;;27.83;11.93;;;;;;;;;;5043034;28;20460;-67
2021/12/01 07:46:06;;;;;;;26.97;13.23;;;;;;;;;;5052022;28;20526;-67
2021/12/01 07:48:55;;;;;;;30.03;13.83;;;;;;;;;;5031246;28;20461;-67
2021/12/01 07:51:22;;;;;;;34.67;15.63;;;;;;;;;;5043451;28;20572;-67
2021/12/01 07:53:49;;;;;;;31.90;13.43;;;;;;;;;;5050755;28;20535;-68
2021/12/01 08:00:15;;;;;;;28.10;12.00;;;;;;;;;;5053295;28;20396;-68
2021/12/01 08:03:24;;;;;;;33.47;13.70;;;;;;;;;;5053185;28;20443;-67
2021/12/01 08:13:13;;;;;;;21.00;10.77;;;;;;;;;;5034402;28;20389;-67
2021/12/01 08:15:48;;;;;;;22.57;10.50;;;;;;;;;;5033107;28;20427;-67
2021/12/01 08:29:12;;;;;;;41.97;17.70;;;;;;;;;;5053742;28;20395;-67
2021/12/01 08:31:39;;;;;;;33.37;16.67;;;;;;;;;;5051807;28;21107;-66
2021/12/01 08:34:06;;;;;;;24.20;12.43;;;;;;;;;;5035252;28;20491;-69
2021/12/01 08:36:33;;;;;;;21.60;10.90;;;;;;;;;;5035485;28;20851;-67
2021/12/01 08:38:59;;;;;;;19.37;9.37;;;;;;;;;;5034027;28;20477;-67
2021/12/01 08:41:41;;;;;;;23.23;10.37;;;;;;;;;;5038792;28;20456;-67
2021/12/01 08:44:08;;;;;;;27.83;10.77;;;;;;;;;;5050723;28;20430;-67
2021/12/01 08:46:35;;;;;;;22.83;11.47;;;;;;;;;;5049122;28;20437;-67
2021/12/01 08:49:02;;;;;;;27.30;10.97;;;;;;;;;;5049890;28;20919;-68
2021/12/01 08:55:26;;;;;;;26.47;11.63;;;;;;;;;;5050570;28;20453;-68
2021/12/01 08:58:09;;;;;;;22.33;10.57;;;;;;;;;;5052123;28;20447;-68
2021/12/01 09:01:11;;;;;;;22.73;10.47;;;;;;;;;;5046028;28;20983;-69
2021/12/01 09:03:38;;;;;;;22.33;11.20;;;;;;;;;;5038315;28;20760;-67
2021/12/01 09:06:05;;;;;;;23.63;11.07;;;;;;;;;;5034203;28;20921;-67
2021/12/01 09:08:36;;;;;;;17.27;9.70;;;;;;;;;;5037958;28;20460;-67
2021/12/01 09:11:04;;;;;;;17.33;10.13;;;;;;;;;;5034400;28;20967;-68
2021/12/01 09:13:31;;;;;;;16.57;8.77;;;;;;;;;;5048717;28;21414;-67
2021/12/01 09:16:11;;;;;;;15.47;8.87;;;;;;;;;;5045691;28;20433;-69
2021/12/01 09:18:42;;;;;;;15.67;8.23;;;;;;;;;;5046148;28;20433;-67
2021/12/01 09:21:09;;;;;;;19.00;9.43;;;;;;;;;;5040736;28;20433;-68
2021/12/01 09:23:36;;;;;;;19.07;9.33;;;;;;;;;;5026526;28;20438;-67
2021/12/01 09:26:04;;;;;;;18.20;9.00;;;;;;;;;;5034079;28;20473;-66
2021/12/01 09:28:30;;;;;;;17.70;8.47;;;;;;;;;;5046078;28;20428;-67
2021/12/01 09:30:57;;;;;;;15.83;8.27;;;;;;;;;;5050771;28;20493;-67
2021/12/01 09:33:24;;;;;;;15.70;8.53;;;;;;;;;;5049866;28;20978;-67
2021/12/01 09:35:51;;;;;;;16.60;8.80;;;;;;;;;;5029335;28;20484;-67
2021/12/01 09:38:18;;;;;;;16.37;8.47;;;;;;;;;;5042538;28;20512;-67
2021/12/01 09:40:49;;;;;;;14.43;8.17;;;;;;;;;;5050292;28;20421;-67
2021/12/01 09:43:16;;;;;;;14.90;8.07;;;;;;;;;;5052772;28;20461;-67
2021/12/01 09:45:44;;;;;;;14.97;8.50;;;;;;;;;;5054094;28;20515;-67
2021/12/01 09:48:12;;;;;;;15.83;8.23;;;;;;;;;;5050565;28;20437;-68
2021/12/01 09:50:39;;;;;;;16.90;8.60;;;;;;;;;;5054736;28;20486;-69
2021/12/01 09:53:05;;;;;;;14.63;7.87;;;;;;;;;;5036493;28;20433;-70
2021/12/01 09:56:11;;;;;;;15.90;8.07;;;;;;;;;;5055571;28;20423;-69
2021/12/01 09:58:43;;;;;;;14.70;7.87;;;;;;;;;;5053675;28;20460;-68
2021/12/01 10:01:12;;;;;;;15.80;7.97;;;;;;;;;;5046197;28;20454;-69
2021/12/01 10:07:13;;;;;;;13.97;7.50;;;;;;;;;;5059175;28;20536;-70
2021/12/01 10:09:41;;;;;;;15.47;7.60;;;;;;;;;;5054287;28;20891;-69
2021/12/01 10:12:08;;;;;;;13.90;8.40;;;;;;;;;;5046934;28;20493;-71
2021/12/01 10:17:46;;;;;;;16.77;8.43;;;;;;;;;;5050105;28;20433;-69
2021/12/01 10:20:43;;;;;;;13.33;8.23;;;;;;;;;;5039441;28;20418;-69
2021/12/01 10:23:12;;;;;;;13.23;8.10;;;;;;;;;;5038303;28;20431;-68
2021/12/01 10:25:39;;;;;;;12.77;7.90;;;;;;;;;;5045922;28;20927;-70
2021/12/01 10:28:06;;;;;;;15.27;8.30;;;;;;;;;;5042127;28;20434;-70
2021/12/01 10:34:21;;;;;;;14.23;7.93;;;;;;;;;;5052566;28;20421;-72
2021/12/01 10:36:48;;;;;;;13.60;8.30;;;;;;;;;;5035000;28;20452;-70
2021/12/01 10:39:15;;;;;;;14.17;8.27;;;;;;;;;;5028331;28;20523;-69
2021/12/01 10:45:18;;;;;;;13.20;6.90;;;;;;;;;;5046440;28;20418;-69
2021/12/01 10:50:41;;;;;;;12.63;6.83;;;;;;;;;;5049444;28;20470;-70
2021/12/01 10:53:43;;;;;;;17.07;8.37;;;;;;;;;;5032997;28;20438;-69
2021/12/01 10:56:10;;;;;;;14.67;8.53;;;;;;;;;;5039625;28;20435;-73
2021/12/01 11:02:09;;;;;;;11.33;6.23;;;;;;;;;;5037357;28;20456;-70
2021/12/01 11:04:41;;;;;;;11.33;6.37;;;;;;;;;;5049777;28;20436;-68
2021/12/01 11:07:22;;;;;;;12.43;6.07;;;;;;;;;;5050339;28;20436;-70
2021/12/01 11:10:07;;;;;;;17.20;7.90;;;;;;;;;;5042738;28;20429;-70
2021/12/01 11:12:34;;;;;;;14.73;7.87;;;;;;;;;;5047394;28;20417;-68
2021/12/01 11:18:51;;;;;;;10.97;4.23;;;;;;;;;;5048638;28;20414;-68
2021/12/01 11:21:23;;;;;;;17.77;8.40;;;;;;;;;;5046960;28;20484;-68
2021/12/01 11:23:50;;;;;;;14.10;7.57;;;;;;;;;;5045750;28;20457;-68
2021/12/01 11:26:19;;;;;;;13.70;7.50;;;;;;;;;;5038395;28;20432;-68
2021/12/01 11:28:52;;;;;;;15.93;8.50;;;;;;;;;;5045986;28;20441;-69
2021/12/01 11:31:20;;;;;;;18.87;8.57;;;;;;;;;;5039967;28;20466;-68
2021/12/01 11:33:47;;;;;;;17.27;8.47;;;;;;;;;;5052934;28;20494;-68
2021/12/01 11:36:15;;;;;;;18.20;8.17;;;;;;;;;;5043553;28;20450;-69
2021/12/01 11:38:43;;;;;;;18.33;8.67;;;;;;;;;;5052126;28;20438;-67
2021/12/01 11:41:10;;;;;;;24.13;10.43;;;;;;;;;;5046217;28;20524;-67
2021/12/01 11:43:37;;;;;;;20.13;8.70;;;;;;;;;;5032600;28;20421;-67
2021/12/01 11:46:04;;;;;;;24.50;10.83;;;;;;;;;;5050159;28;20427;-69
2021/12/01 11:48:32;;;;;;;21.80;10.73;;;;;;;;;;5048324;28;20421;-68
2021/12/01 11:51:17;;;;;;;22.43;10.33;;;;;;;;;;5044601;28;20545;-68
2021/12/01 11:53:45;;;;;;;20.57;9.80;;;;;;;;;;5053960;28;20822;-68
2021/12/01 11:56:12;;;;;;;19.63;10.10;;;;;;;;;;5051684;28;20919;-68
2021/12/01 11:58:48;;;;;;;22.27;11.10;;;;;;;;;;5046756;28;20522;-69
2021/12/01 12:04:44;;;;;;;22.00;10.70;;;;;;;;;;5052228;28;20433;-69
2021/12/01 12:07:26;;;;;;;18.90;10.20;;;;;;;;;;5048387;28;20440;-68
2021/12/01 12:10:07;;;;;;;20.33;9.37;;;;;;;;;;5032588;28;20453;-69
2021/12/01 12:12:47;;;;;;;19.77;9.53;;;;;;;;;;5036967;28;20826;-69
2021/12/01 12:15:32;;;;;;;17.57;9.20;;;;;;;;;;5044958;28;20495;-68
2021/12/01 12:18:02;;;;;;;14.17;8.43;;;;;;;;;;5045132;28;20433;-69
2021/12/01 12:20:33;;;;;;;16.87;8.87;;;;;;;;;;5042645;28;20434;-67
2021/12/01 12:23:01;;;;;;;17.23;8.67;;;;;;;;;;5051547;28;20859;-67
2021/12/01 12:26:04;;;;;;;15.77;8.93;;;;;;;;;;5042637;28;20426;-69
2021/12/01 12:28:41;;;;;;;17.07;8.40;;;;;;;;;;5047693;28;20531;-68
2021/12/01 12:31:20;;;;;;;16.40;9.23;;;;;;;;;;5044163;28;20468;-69
2021/12/01 12:33:51;;;;;;;19.23;9.37;;;;;;;;;;5040424;28;20426;-68
2021/12/01 12:36:43;;;;;;;18.90;10.10;;;;;;;;;;5043220;28;20446;-68
2021/12/01 12:39:23;;;;;;;18.70;8.80;;;;;;;;;;5037025;28;20531;-70
2021/12/01 12:42:04;;;;;;;18.17;9.13;;;;;;;;;;5052461;28;20429;-69
2021/12/01 12:48:36;;;;;;;19.47;9.83;;;;;;;;;;5052256;28;20459;-68
2021/12/01 12:51:30;;;;;;;14.17;8.20;;;;;;;;;;5051946;28;20495;-68
2021/12/01 12:54:00;;;;;;;18.40;10.40;;;;;;;;;;5051437;28;20437;-69
2021/12/01 12:56:57;;;;;;;18.97;11.03;;;;;;;;;;5051654;28;20963;-68
2021/12/01 12:59:26;;;;;;;23.23;12.00;;;;;;;;;;5052620;28;20426;-70
2021/12/01 13:01:53;;;;;;;23.10;12.63;;;;;;;;;;5050707;28;20430;-68
2021/12/01 13:07:56;;;;;;;24.63;12.23;;;;;;;;;;5051462;28;20414;-68
2021/12/01 13:10:24;;;;;;;21.23;12.23;;;;;;;;;;5051523;28;20765;-69
2021/12/01 13:12:54;;;;;;;22.90;12.50;;;;;;;;;;5050266;28;21021;-67
2021/12/01 13:15:45;;;;;;;22.10;11.53;;;;;;;;;;5051777;28;20440;-67
2021/12/01 13:18:13;;;;;;;20.27;11.93;;;;;;;;;;5043225;28;20433;-67
2021/12/01 13:20:41;;;;;;;21.53;11.97;;;;;;;;;;5045136;28;20772;-67
2021/12/01 13:23:07;;;;;;;23.47;12.37;;;;;;;;;;5050483;28;20425;-67
2021/12/01 13:29:08;;;;;;;19.00;11.00;;;;;;;;;;5034764;28;20422;-67
2021/12/01 13:31:49;;;;;;;21.73;12.47;;;;;;;;;;5034572;28;20433;-67
2021/12/01 13:34:18;;;;;;;19.20;10.33;;;;;;;;;;5042613;28;20456;-69
2021/12/01 13:37:11;;;;;;;22.37;12.43;;;;;;;;;;5048742;28;20512;-69
2021/12/01 13:39:39;;;;;;;24.77;14.17;;;;;;;;;;5047798;28;20862;-68
2021/12/01 13:42:08;;;;;;;26.03;13.77;;;;;;;;;;5033620;28;20498;-67
2021/12/01 13:45:16;;;;;;;25.43;14.50;;;;;;;;;;5046833;28;20442;-68
2021/12/01 13:47:44;;;;;;;22.17;12.17;;;;;;;;;;5031099;28;20473;-68
2021/12/01 13:50:11;;;;;;;23.60;13.23;;;;;;;;;;5043338;28;20429;-68
2021/12/01 13:52:37;;;;;;;23.10;13.47;;;;;;;;;;5051344;28;20860;-69
2021/12/01 13:55:24;;;;;;;24.73;13.27;;;;;;;;;;5046773;28;20804;-68
2021/12/01 14:01:10;;;;;;;24.10;12.73;;;;;;;;;;5052122;28;20453;-68
2021/12/01 14:03:40;;;;;;;20.97;11.33;;;;;;;;;;5031453;28;20422;-69
2021/12/01 14:09:40;;;;;;;25.30;10.40;;;;;;;;;;5037677;28;20521;-69
2021/12/01 14:12:09;;;;;;;21.60;11.03;;;;;;;;;;5045881;28;20475;-68
2021/12/01 14:14:36;;;;;;;24.23;11.97;;;;;;;;;;5038299;28;20426;-69
2021/12/01 14:20:14;;;;;;;26.67;12.17;;;;;;;;;;5040791;28;20428;-69
2021/12/01 14:22:46;;;;;;;22.97;11.47;;;;;;;;;;5042079;28;20475;-68
2021/12/01 14:25:13;;;;;;;24.83;12.80;;;;;;;;;;5046303;28;20537;-69
2021/12/01 14:27:41;;;;;;;24.77;13.17;;;;;;;;;;5040489;28;20417;-70
2021/12/01 14:30:40;;;;;;;20.13;10.63;;;;;;;;;;5053863;28;20449;-70
2021/12/01 14:33:10;;;;;;;24.37;12.13;;;;;;;;;;5054386;28;20456;-70
2021/12/01 14:36:10;;;;;;;25.50;13.53;;;;;;;;;;5054167;28;20807;-70
2021/12/01 14:38:39;;;;;;;23.20;11.83;;;;;;;;;;5038769;28;20496;-70
2021/12/01 14:41:09;;;;;;;24.80;12.13;;;;;;;;;;5042066;28;20425;-70
2021/12/01 14:44:00;;;;;;;20.53;11.50;;;;;;;;;;5055030;28;20781;-69
2021/12/01 14:46:28;;;;;;;22.57;12.70;;;;;;;;;;5037056;28;20445;-70
2021/12/01 14:49:02;;;;;;;23.57;12.03;;;;;;;;;;5035286;28;20414;-70
2021/12/01 14:51:33;;;;;;;19.10;10.33;;;;;;;;;;5036672;28;20444;-70
2021/12/01 14:54:09;;;;;;;21.00;11.70;;;;;;;;;;5037410;28;20465;-70
2021/12/01 14:56:36;;;;;;;26.40;13.43;;;;;;;;;;5036644;28;20429;-70
2021/12/01 14:59:03;;;;;;;22.20;13.17;;;;;;;;;;5035291;28;20472;-70
2021/12/01 15:01:31;;;;;;;19.70;11.83;;;;;;;;;;5036491;28;20430;-70
2021/12/01 15:04:05;;;;;;;18.87;11.63;;;;;;;;;;5036213;28;20957;-70
2021/12/01 15:06:32;;;;;;;22.67;13.03;;;;;;;;;;5036685;28;20829;-70
2021/12/01 15:09:01;;;;;;;19.10;9.87;;;;;;;;;;5036388;28;20483;-70
2021/12/01 15:11:41;;;;;;;20.10;12.50;;;;;;;;;;5036494;28;20454;-70
2021/12/01 15:14:09;;;;;;;21.03;12.13;;;;;;;;;;5036592;28;20398;-70
2021/12/01 15:16:36;;;;;;;23.40;12.33;;;;;;;;;;5035603;28;20821;-70
2021/12/01 15:19:11;;;;;;;21.27;11.87;;;;;;;;;;5035839;28;20441;-70
2021/12/01 15:21:46;;;;;;;21.77;12.00;;;;;;;;;;5035291;28;20468;-70
2021/12/01 15:24:17;;;;;;;14.60;8.53;;;;;;;;;;5036474;28;20393;-70
2021/12/01 15:26:47;;;;;;;18.53;10.10;;;;;;;;;;5036318;28;20777;-71
2021/12/01 15:29:15;;;;;;;17.70;10.27;;;;;;;;;;5036163;28;20505;-70
2021/12/01 15:31:55;;;;;;;14.73;8.80;;;;;;;;;;5019473;28;20955;-70
2021/12/01 15:34:23;;;;;;;21.27;12.37;;;;;;;;;;5035823;28;20822;-71
2021/12/01 15:36:50;;;;;;;14.97;8.23;;;;;;;;;;5018303;28;20434;-71
2021/12/01 15:39:17;;;;;;;20.77;11.80;;;;;;;;;;5034749;28;20457;-71
2021/12/01 15:41:44;;;;;;;18.97;11.27;;;;;;;;;;5033640;28;20460;-71
2021/12/01 15:44:11;;;;;;;18.73;9.77;;;;;;;;;;5033861;28;20421;-71
2021/12/01 15:50:39;;;;;;;14.33;7.63;;;;;;;;;;5035603;28;20436;-71
2021/12/01 15:57:05;;;;;;;18.47;10.13;;;;;;;;;;5034600;28;20389;-71
2021/12/01 15:59:31;;;;;;;14.90;9.50;;;;;;;;;;5035269;28;20430;-71
2021/12/01 16:01:58;;;;;;;15.83;10.20;;;;;;;;;;5035380;28;20427;-71
2021/12/01 16:04:25;;;;;;;15.37;8.97;;;;;;;;;;5035601;28;20480;-71
2021/12/01 16:06:52;;;;;;;15.90;9.43;;;;;;;;;;5035504;28;20418;-71
2021/12/01 16:09:23;;;;;;;18.57;10.50;;;;;;;;;;5017499;28;20468;-72
2021/12/01 16:11:50;;;;;;;21.50;12.77;;;;;;;;;;5035442;28;20766;-72
2021/12/01 16:14:17;;;;;;;17.13;9.83;;;;;;;;;;5034855;28;20449;-71
2021/12/01 16:20:37;;;;;;;9.87;4.73;;;;;;;;;;5034723;28;20437;-72
2021/12/01 16:23:04;;;;;;;14.97;9.87;;;;;;;;;;5034693;28;20521;-72
2021/12/01 16:25:50;;;;;;;29.13;15.07;;;;;;;;;;5035084;28;20426;-72
2021/12/01 16:28:17;;;;;;;12.93;7.37;;;;;;;;;;5035134;28;20804;-72
2021/12/01 16:30:44;;;;;;;16.57;9.80;;;;;;;;;;5033628;28;20414;-67
2021/12/01 16:33:11;;;;;;;16.77;9.57;;;;;;;;;;5034698;28;20480;-67
2021/12/01 16:35:38;;;;;;;16.23;9.40;;;;;;;;;;5034644;28;20512;-67
2021/12/01 16:38:07;;;;;;;15.83;9.80;;;;;;;;;;5034678;28;20767;-68
2021/12/01 16:40:34;;;;;;;10.30;7.07;;;;;;;;;;5033091;28;20536;-68
2021/12/01 16:43:02;;;;;;;14.10;9.07;;;;;;;;;;5034928;28;20422;-67
2021/12/01 16:45:28;;;;;;;12.53;7.23;;;;;;;;;;5034179;28;20513;-73
2021/12/01 16:47:55;;;;;;;13.77;8.40;;;;;;;;;;5033194;28;20438;-73
2021/12/01 16:50:23;;;;;;;15.63;9.07;;;;;;;;;;5033530;28;20418;-71
2021/12/01 16:52:52;;;;;;;14.67;8.77;;;;;;;;;;5035288;28;20462;-71
2021/12/01 16:55:19;;;;;;;14.93;8.67;;;;;;;;;;5033640;28;20485;-76
2021/12/01 16:57:47;;;;;;;14.07;8.53;;;;;;;;;;5033706;28;20969;-74
2021/12/01 17:00:15;;;;;;;14.80;8.97;;;;;;;;;;5033287;28;20773;-75
2021/12/01 17:02:44;;;;;;;14.10;8.07;;;;;;;;;;5048422;28;20797;-75
2021/12/01 17:05:13;;;;;;;13.23;7.53;;;;;;;;;;5048468;28;20438;-74